Hauptseite
METAR-TAF:

METAR-TAF

Flughäfen :

Weeze, Deutschland

Flughafen Weeze

Breite: 51-36-09N, Länge: 006-08-32E, Höhe: 32 m

Beobachtung

Neuester Wetterbericht von vor 35 Minuten, um 11:20 UTC
Wind 5 kt aus Südwest, variierte zwischen Ost/Südost und West
Temperatur 20°C
Luftfeuchtigkeit 53%
Luftdruck 1024 hPa
Sichtweite 10 km oder mehr
Aufgelockert bewölkt in der Höhe von 4500 ft

METAR: EDLV 211120Z 22005KT 120V260 9999 SCT045 20/10 Q1024

Zeit: 13:55 (11:55 UTC)

Prognose

Neuester Wetterbericht von vor 55 Minuten, um 11:00 UTC
Gültige Prognose vom 21 um 12 UTC bis 22 um 12 UTC
Wind 5 kt aus West
Sichtweite 10 km oder mehr
Leicht bewölkt in der Höhe von 4000 ft

TAF: EDLV 211100Z 2112/2212 26005KT 9999 FEW040

Wetterbeobachtungen und Prognosen von mehr als 4000 Flughäfen (METAR und TAF Bericht).

Die verfügbaren Stationen werden durch gelbe und rote Markierungen auf der Karte dargestellt.

Führen Sie die Maus auf sie, um den Namen der Station zu sehen.

Darauf klicken, um die Beobachtung von Wetterbeobachtungen und Prognosen zu sehen.

Um die Karte zu ändern : klicken Sie auf den grünen Tasten mit einem schwarzen Kreuz Zum Vergrößern, auf den grünen Button mit einem Gedankenstrich zu verkleinern, oder auf die grünen Pfeile für benachbarte Karten.


METAR-TAF: